Time;durP1;ratioP1;P1;durP2;ratioP2;P2;SDS_P1;SDS_P2;PMS_P1;PMS_P2;Temp;Humidity;BMP_temperature;BMP_pressure;BME280_temperature;BME280_humidity;BME280_pressure;Samples;Min_cycle;Max_cycle;Signal;HPM_P1;HPM_P2
2022/11/26 00:02:29;;;;;;;36.65;33.33;;;;;;;;;;4814956;29;20062;-73
2022/11/26 00:04:58;;;;;;;28.02;25.42;;;;;;;;;;4789386;29;20388;-71
2022/11/26 00:07:27;;;;;;;31.73;28.85;;;;;;;;;;4801002;29;20078;-72
2022/11/26 00:09:56;;;;;;;27.58;25.13;;;;;;;;;;4818701;29;20054;-72
2022/11/26 00:12:24;;;;;;;28.95;26.40;;;;;;;;;;4784932;29;20049;-73
2022/11/26 00:14:52;;;;;;;28.30;25.98;;;;;;;;;;4815803;29;20042;-73
2022/11/26 00:17:20;;;;;;;32.30;29.38;;;;;;;;;;4800038;29;20119;-71
2022/11/26 00:19:47;;;;;;;29.17;26.55;;;;;;;;;;4800435;29;20034;-73
2022/11/26 00:22:25;;;;;;;30.55;27.95;;;;;;;;;;4801147;29;20054;-73
2022/11/26 00:24:53;;;;;;;32.05;28.80;;;;;;;;;;4821858;29;20479;-73
2022/11/26 00:27:21;;;;;;;35.33;31.73;;;;;;;;;;4800845;29;20049;-73
2022/11/26 00:29:49;;;;;;;31.50;28.50;;;;;;;;;;4797811;29;20751;-73
2022/11/26 00:32:18;;;;;;;30.45;27.58;;;;;;;;;;4812427;29;20050;-72
2022/11/26 00:34:45;;;;;;;34.60;31.35;;;;;;;;;;4820087;29;20038;-73
2022/11/26 00:37:19;;;;;;;32.42;29.45;;;;;;;;;;4824709;29;20418;-73
2022/11/26 00:39:47;;;;;;;34.00;30.50;;;;;;;;;;4801337;29;20047;-73
2022/11/26 00:42:14;;;;;;;33.17;29.88;;;;;;;;;;4810362;29;20103;-73
2022/11/26 00:44:42;;;;;;;32.92;30.17;;;;;;;;;;4815908;29;20077;-70
2022/11/26 00:47:09;;;;;;;28.85;26.45;;;;;;;;;;4839526;29;20057;-72
2022/11/26 00:49:37;;;;;;;32.65;29.42;;;;;;;;;;4839120;29;20084;-72
2022/11/26 00:52:12;;;;;;;30.90;28.00;;;;;;;;;;4823918;29;20053;-73
2022/11/26 00:54:39;;;;;;;31.90;29.15;;;;;;;;;;4815944;29;20046;-73
2022/11/26 00:57:08;;;;;;;33.20;30.20;;;;;;;;;;4818020;29;20399;-72
2022/11/26 00:59:36;;;;;;;33.20;30.13;;;;;;;;;;4794785;29;20457;-73
2022/11/26 01:02:03;;;;;;;32.35;29.60;;;;;;;;;;4787352;29;20422;-73
2022/11/26 01:04:31;;;;;;;35.20;31.88;;;;;;;;;;4760203;29;20515;-73
2022/11/26 01:06:58;;;;;;;31.33;28.58;;;;;;;;;;4814613;29;20723;-73
2022/11/26 01:09:26;;;;;;;35.58;32.30;;;;;;;;;;4799590;29;20074;-71
2022/11/26 01:11:53;;;;;;;32.15;29.48;;;;;;;;;;4800737;29;20046;-71
2022/11/26 01:14:22;;;;;;;38.63;35.28;;;;;;;;;;4812271;29;20048;-72
2022/11/26 01:16:49;;;;;;;35.92;32.88;;;;;;;;;;4808465;29;20042;-71
2022/11/26 01:19:17;;;;;;;31.80;29.15;;;;;;;;;;4807056;29;20043;-72
2022/11/26 01:21:44;;;;;;;34.03;30.88;;;;;;;;;;4789189;29;20043;-73
2022/11/26 01:24:12;;;;;;;32.72;29.92;;;;;;;;;;4788392;29;20503;-72
2022/11/26 01:26:40;;;;;;;44.35;40.95;;;;;;;;;;4796097;29;20054;-73
2022/11/26 01:29:13;;;;;;;33.58;30.63;;;;;;;;;;4806248;29;20145;-72
2022/11/26 01:31:41;;;;;;;34.03;31.00;;;;;;;;;;4797696;29;20500;-72
2022/11/26 01:34:08;;;;;;;33.35;30.55;;;;;;;;;;4798352;29;20517;-72
2022/11/26 01:36:37;;;;;;;34.92;32.03;;;;;;;;;;4799332;29;20047;-73
2022/11/26 01:39:07;;;;;;;33.53;30.67;;;;;;;;;;4800982;29;20046;-72
2022/11/26 01:41:56;;;;;;;33.25;30.25;;;;;;;;;;4815084;29;20049;-72
2022/11/26 01:44:28;;;;;;;30.40;27.75;;;;;;;;;;4790417;29;20119;-74
2022/11/26 01:46:56;;;;;;;30.25;27.55;;;;;;;;;;4808446;29;20049;-72
2022/11/26 01:49:28;;;;;;;29.83;27.23;;;;;;;;;;4802428;29;20053;-72
2022/11/26 01:52:14;;;;;;;30.63;28.10;;;;;;;;;;4811711;29;20062;-75
2022/11/26 01:54:43;;;;;;;31.63;28.58;;;;;;;;;;4802736;29;20042;-72
2022/11/26 01:57:14;;;;;;;29.30;26.70;;;;;;;;;;4806011;29;20051;-77
2022/11/26 01:59:43;;;;;;;28.45;25.73;;;;;;;;;;4798480;29;20048;-71
2022/11/26 02:02:10;;;;;;;30.40;27.77;;;;;;;;;;4802143;29;20067;-71
2022/11/26 02:04:46;;;;;;;31.42;28.35;;;;;;;;;;4805351;29;20089;-71
2022/11/26 02:07:13;;;;;;;26.40;24.00;;;;;;;;;;4806536;29;20051;-72
2022/11/26 02:09:41;;;;;;;31.02;28.42;;;;;;;;;;4806937;29;20422;-72
2022/11/26 02:12:09;;;;;;;29.50;26.85;;;;;;;;;;4802496;29;20102;-71
2022/11/26 02:14:38;;;;;;;30.13;27.60;;;;;;;;;;4801688;29;20046;-73
2022/11/26 02:17:12;;;;;;;31.05;28.27;;;;;;;;;;4802143;29;20043;-73
2022/11/26 02:20:09;;;;;;;30.08;27.42;;;;;;;;;;4804037;29;20049;-73
2022/11/26 02:23:01;;;;;;;28.77;26.15;;;;;;;;;;4806969;29;20046;-71
2022/11/26 02:25:34;;;;;;;31.27;28.38;;;;;;;;;;4806846;29;20078;-71
2022/11/26 02:28:11;;;;;;;29.60;27.00;;;;;;;;;;4816690;29;20046;-72
2022/11/26 02:30:40;;;;;;;29.52;27.08;;;;;;;;;;4798510;29;20046;-72
2022/11/26 02:33:20;;;;;;;30.60;27.85;;;;;;;;;;4814512;29;20094;-72
2022/11/26 02:35:49;;;;;;;30.45;27.92;;;;;;;;;;4813584;29;20042;-72
2022/11/26 02:38:19;;;;;;;32.53;29.85;;;;;;;;;;4821495;29;20053;-72
2022/11/26 02:40:47;;;;;;;35.03;32.00;;;;;;;;;;4825579;29;20043;-72
2022/11/26 02:43:15;;;;;;;35.38;32.40;;;;;;;;;;4810512;29;20042;-72
2022/11/26 02:45:46;;;;;;;28.52;26.08;;;;;;;;;;4813046;29;20062;-72
2022/11/26 02:48:19;;;;;;;32.58;29.88;;;;;;;;;;4808400;29;20050;-72
2022/11/26 02:50:49;;;;;;;34.05;30.88;;;;;;;;;;4808678;29;20042;-72
2022/11/26 02:53:19;;;;;;;30.83;28.00;;;;;;;;;;4811171;29;20289;-72
2022/11/26 02:55:49;;;;;;;30.20;27.40;;;;;;;;;;4820086;29;20043;-71
2022/11/26 02:58:17;;;;;;;27.52;25.35;;;;;;;;;;4808213;29;20099;-72
2022/11/26 03:00:46;;;;;;;34.38;31.23;;;;;;;;;;4822909;29;20506;-72
2022/11/26 03:03:22;;;;;;;32.33;29.35;;;;;;;;;;4795231;29;20124;-72
2022/11/26 03:05:52;;;;;;;31.92;29.20;;;;;;;;;;4812595;29;20054;-71
2022/11/26 03:08:20;;;;;;;33.80;31.10;;;;;;;;;;4808445;29;20108;-72
2022/11/26 03:10:47;;;;;;;35.22;32.17;;;;;;;;;;4800372;29;20709;-73
2022/11/26 03:13:15;;;;;;;32.45;29.83;;;;;;;;;;4821570;29;20064;-72
2022/11/26 03:15:42;;;;;;;33.58;30.85;;;;;;;;;;4824696;29;20046;-72
2022/11/26 03:18:09;;;;;;;33.95;30.95;;;;;;;;;;4820390;29;20039;-72
2022/11/26 03:20:37;;;;;;;35.35;32.47;;;;;;;;;;4813695;29;20038;-73
2022/11/26 03:23:04;;;;;;;35.30;32.42;;;;;;;;;;4806726;29;20463;-72
2022/11/26 03:25:32;;;;;;;33.78;31.13;;;;;;;;;;4820033;29;20065;-72
2022/11/26 03:27:59;;;;;;;34.45;31.75;;;;;;;;;;4807568;29;20051;-72
2022/11/26 03:30:27;;;;;;;37.45;34.28;;;;;;;;;;4826261;29;20604;-73
2022/11/26 03:32:54;;;;;;;32.15;29.58;;;;;;;;;;4801343;29;20050;-72
2022/11/26 03:35:22;;;;;;;28.25;25.98;;;;;;;;;;4816017;29;20034;-73
2022/11/26 03:37:49;;;;;;;31.10;28.52;;;;;;;;;;4801706;29;20484;-72
2022/11/26 03:40:16;;;;;;;33.28;30.63;;;;;;;;;;4805084;29;20055;-72
2022/11/26 03:42:44;;;;;;;32.85;29.83;;;;;;;;;;4818864;29;20046;-73
2022/11/26 03:45:13;;;;;;;32.28;29.48;;;;;;;;;;4795706;29;20131;-72
2022/11/26 03:47:40;;;;;;;35.60;32.45;;;;;;;;;;4827274;29;20081;-72
2022/11/26 03:50:07;;;;;;;34.17;31.35;;;;;;;;;;4795722;29;20082;-73
2022/11/26 03:52:35;;;;;;;34.90;32.22;;;;;;;;;;4829280;29;20046;-72
2022/11/26 03:55:02;;;;;;;32.63;30.25;;;;;;;;;;4817081;29;20046;-73
2022/11/26 03:57:29;;;;;;;38.50;35.58;;;;;;;;;;4816099;29;20535;-73
2022/11/26 03:59:57;;;;;;;34.20;31.48;;;;;;;;;;4819068;29;20049;-72
2022/11/26 04:02:24;;;;;;;37.33;34.08;;;;;;;;;;4819233;29;20042;-72
2022/11/26 04:04:51;;;;;;;36.53;33.72;;;;;;;;;;4786180;29;20065;-73
2022/11/26 04:07:19;;;;;;;34.70;31.77;;;;;;;;;;4788119;29;20046;-72
2022/11/26 04:09:46;;;;;;;35.85;32.90;;;;;;;;;;4791224;29;20144;-73
2022/11/26 04:12:13;;;;;;;36.72;33.95;;;;;;;;;;4818200;29;20076;-73
2022/11/26 04:14:40;;;;;;;34.17;31.08;;;;;;;;;;4809446;29;21225;-72
2022/11/26 04:17:08;;;;;;;36.28;33.15;;;;;;;;;;4804236;29;20119;-70
2022/11/26 04:19:35;;;;;;;35.30;32.60;;;;;;;;;;4828021;29;20588;-73
2022/11/26 04:22:03;;;;;;;30.20;27.77;;;;;;;;;;4813864;29;20053;-72
2022/11/26 04:24:30;;;;;;;31.10;28.95;;;;;;;;;;4819714;29;20057;-73
2022/11/26 04:26:57;;;;;;;28.83;26.63;;;;;;;;;;4810276;29;20110;-73
2022/11/26 04:29:25;;;;;;;30.67;28.10;;;;;;;;;;4800312;29;20130;-73
2022/11/26 04:31:52;;;;;;;28.63;26.42;;;;;;;;;;4791738;29;20042;-73
2022/11/26 04:34:19;;;;;;;33.95;31.60;;;;;;;;;;4827855;29;20129;-73
2022/11/26 04:36:47;;;;;;;26.23;24.23;;;;;;;;;;4813363;29;20039;-73
2022/11/26 04:39:14;;;;;;;30.60;28.38;;;;;;;;;;4811018;29;20528;-73
2022/11/26 04:41:41;;;;;;;31.33;28.85;;;;;;;;;;4822428;29;20034;-72
2022/11/26 04:44:09;;;;;;;28.95;26.85;;;;;;;;;;4823641;29;20050;-73
2022/11/26 04:46:36;;;;;;;30.23;27.73;;;;;;;;;;4810162;29;20123;-73
2022/11/26 04:49:03;;;;;;;35.65;32.80;;;;;;;;;;4798540;29;20051;-73
2022/11/26 04:51:31;;;;;;;28.92;26.80;;;;;;;;;;4799295;29;20091;-73
2022/11/26 04:53:58;;;;;;;31.40;29.05;;;;;;;;;;4800969;29;20114;-73
2022/11/26 04:56:30;;;;;;;26.98;24.85;;;;;;;;;;4797056;29;20099;-73
2022/11/26 04:58:57;;;;;;;28.55;25.92;;;;;;;;;;4808122;29;20042;-73
2022/11/26 05:01:24;;;;;;;23.50;21.63;;;;;;;;;;4810770;29;20046;-72
2022/11/26 05:03:51;;;;;;;30.52;28.15;;;;;;;;;;4814290;29;20046;-73
2022/11/26 05:06:19;;;;;;;30.42;28.10;;;;;;;;;;4808139;29;20753;-73
2022/11/26 05:08:46;;;;;;;29.33;27.27;;;;;;;;;;4812705;29;20475;-73
2022/11/26 05:11:13;;;;;;;32.78;30.58;;;;;;;;;;4818734;29;20046;-73
2022/11/26 05:13:40;;;;;;;29.10;27.05;;;;;;;;;;4828375;29;20046;-73
2022/11/26 05:16:08;;;;;;;58.72;54.72;;;;;;;;;;4789106;29;20427;-72
2022/11/26 05:18:35;;;;;;;35.55;33.17;;;;;;;;;;4786517;29;20058;-71
2022/11/26 05:21:04;;;;;;;33.25;30.83;;;;;;;;;;4793913;29;20049;-71
2022/11/26 05:23:31;;;;;;;36.92;34.20;;;;;;;;;;4816212;29;20050;-72
2022/11/26 05:25:59;;;;;;;34.20;31.60;;;;;;;;;;4808726;29;20042;-72
2022/11/26 05:28:26;;;;;;;36.72;34.20;;;;;;;;;;4827396;29;20470;-71
2022/11/26 05:30:58;;;;;;;37.35;34.55;;;;;;;;;;4798131;29;20051;-72
2022/11/26 05:33:25;;;;;;;;;;;;;;;;;;4813120;29;20066;-72
2022/11/26 05:35:53;;;;;;;18.27;16.40;;;;;;;;;;4810326;29;20426;-71
2022/11/26 05:38:20;;;;;;;24.20;22.38;;;;;;;;;;4810007;29;20054;-72
2022/11/26 05:40:48;;;;;;;29.33;26.92;;;;;;;;;;4814021;29;20042;-72
2022/11/26 05:43:15;;;;;;;33.97;31.17;;;;;;;;;;4818024;29;20503;-72
2022/11/26 05:45:42;;;;;;;34.55;32.25;;;;;;;;;;4827017;29;20102;-72
2022/11/26 05:48:10;;;;;;;34.22;31.77;;;;;;;;;;4818462;29;20058;-72
2022/11/26 05:50:37;;;;;;;36.30;33.70;;;;;;;;;;4786064;29;20106;-71
2022/11/26 05:53:05;;;;;;;38.88;36.08;;;;;;;;;;4816087;29;20047;-72
2022/11/26 05:55:32;;;;;;;38.00;35.30;;;;;;;;;;4813856;29;20561;-72
2022/11/26 05:57:59;;;;;;;37.85;35.22;;;;;;;;;;4811621;29;20058;-72
2022/11/26 06:00:26;;;;;;;38.40;35.58;;;;;;;;;;4814240;29;20392;-72
2022/11/26 06:02:54;;;;;;;33.03;30.15;;;;;;;;;;4801402;29;20611;-70
2022/11/26 06:05:21;;;;;;;37.20;34.38;;;;;;;;;;4794134;29;20081;-71
2022/11/26 06:07:49;;;;;;;31.08;28.70;;;;;;;;;;4792760;29;20153;-72
2022/11/26 06:10:16;;;;;;;34.13;31.52;;;;;;;;;;4818343;29;20499;-71
2022/11/26 06:12:44;;;;;;;37.00;34.22;;;;;;;;;;4818670;29;20046;-72
2022/11/26 06:15:11;;;;;;;41.85;38.97;;;;;;;;;;4822124;29;20541;-71
2022/11/26 06:17:38;;;;;;;41.65;38.90;;;;;;;;;;4819456;29;20362;-72
2022/11/26 06:20:06;;;;;;;42.72;39.80;;;;;;;;;;4812923;29;20350;-72
2022/11/26 06:22:40;;;;;;;44.78;41.53;;;;;;;;;;4809307;29;20496;-71
2022/11/26 06:25:09;;;;;;;45.78;42.35;;;;;;;;;;4790554;29;20042;-71
2022/11/26 06:27:36;;;;;;;37.70;34.83;;;;;;;;;;4807731;29;20051;-71
2022/11/26 06:30:04;;;;;;;32.78;30.30;;;;;;;;;;4815475;29;20073;-71
2022/11/26 06:32:32;;;;;;;36.65;33.83;;;;;;;;;;4813054;29;20086;-71
2022/11/26 06:34:59;;;;;;;38.75;35.95;;;;;;;;;;4816855;29;20038;-71
2022/11/26 06:37:26;;;;;;;39.00;36.22;;;;;;;;;;4789531;29;20042;-71
2022/11/26 06:39:54;;;;;;;34.63;31.85;;;;;;;;;;4809362;29;20511;-71
2022/11/26 06:42:21;;;;;;;38.08;34.90;;;;;;;;;;4810451;29;20109;-71
2022/11/26 06:44:48;;;;;;;33.80;31.20;;;;;;;;;;4811645;29;20051;-72
2022/11/26 06:47:16;;;;;;;39.28;36.47;;;;;;;;;;4810620;29;20511;-71
2022/11/26 06:49:43;;;;;;;38.00;34.95;;;;;;;;;;4813480;29;20050;-72
2022/11/26 06:52:10;;;;;;;41.42;38.17;;;;;;;;;;4805996;29;20515;-71
2022/11/26 06:54:38;;;;;;;35.03;32.15;;;;;;;;;;4821219;29;20130;-71
2022/11/26 06:57:05;;;;;;;36.85;33.88;;;;;;;;;;4810142;29;20042;-71
2022/11/26 06:59:33;;;;;;;36.20;33.42;;;;;;;;;;4806789;29;20046;-71
2022/11/26 07:02:00;;;;;;;35.80;32.58;;;;;;;;;;4816067;29;20119;-70
2022/11/26 07:04:27;;;;;;;32.80;30.25;;;;;;;;;;4809984;29;20301;-71
2022/11/26 07:06:55;;;;;;;32.88;30.50;;;;;;;;;;4818261;29;20507;-71
2022/11/26 07:09:22;;;;;;;34.50;31.20;;;;;;;;;;4811477;29;20446;-72
2022/11/26 07:11:49;;;;;;;29.45;27.15;;;;;;;;;;4821653;29;20070;-71
2022/11/26 07:14:17;;;;;;;38.55;35.55;;;;;;;;;;4788976;29;20054;-71
2022/11/26 07:16:45;;;;;;;32.47;30.02;;;;;;;;;;4809730;29;20038;-71
2022/11/26 07:19:13;;;;;;;34.65;31.73;;;;;;;;;;4809880;29;20065;-71
2022/11/26 07:21:40;;;;;;;43.20;39.63;;;;;;;;;;4815428;29;20042;-72
2022/11/26 07:24:08;;;;;;;34.53;31.48;;;;;;;;;;4816689;29;20038;-70
2022/11/26 07:26:35;;;;;;;26.02;23.67;;;;;;;;;;4810563;29;20543;-70
2022/11/26 07:29:03;;;;;;;34.72;31.48;;;;;;;;;;4823371;29;20058;-71
2022/11/26 07:31:30;;;;;;;40.92;37.40;;;;;;;;;;4798279;29;20055;-71
2022/11/26 07:33:57;;;;;;;20.13;18.35;;;;;;;;;;4808132;29;20064;-71
2022/11/26 07:36:26;;;;;;;32.03;28.98;;;;;;;;;;4803204;29;20101;-70
2022/11/26 07:38:58;;;;;;;29.60;26.80;;;;;;;;;;4802439;29;20105;-70
2022/11/26 07:41:26;;;;;;;33.78;30.80;;;;;;;;;;4790995;29;20078;-70
2022/11/26 07:43:54;;;;;;;35.58;32.45;;;;;;;;;;4802120;29;20051;-70
2022/11/26 07:46:23;;;;;;;31.23;28.80;;;;;;;;;;4771879;29;20125;-70
2022/11/26 07:48:51;;;;;;;37.47;34.45;;;;;;;;;;4802567;29;20062;-70
2022/11/26 07:51:20;;;;;;;39.35;36.50;;;;;;;;;;4809014;29;20115;-70
2022/11/26 07:53:48;;;;;;;38.40;34.92;;;;;;;;;;4797203;29;20072;-70
2022/11/26 07:56:15;;;;;;;51.88;47.75;;;;;;;;;;4811150;29;20065;-69
2022/11/26 07:58:43;;;;;;;63.70;59.30;;;;;;;;;;4813895;29;20103;-70
2022/11/26 08:01:11;;;;;;;62.42;57.75;;;;;;;;;;4804975;29;20038;-70
2022/11/26 08:03:39;;;;;;;49.78;45.40;;;;;;;;;;4797639;29;20936;-70
2022/11/26 08:06:11;;;;;;;49.92;46.35;;;;;;;;;;4806550;29;20042;-70
2022/11/26 08:08:39;;;;;;;55.05;51.22;;;;;;;;;;4806822;29;20058;-70
2022/11/26 08:11:14;;;;;;;39.97;36.67;;;;;;;;;;4805139;29;20511;-70
2022/11/26 08:13:42;;;;;;;80.50;74.78;;;;;;;;;;4819873;29;20500;-70
2022/11/26 08:16:09;;;;;;;35.65;33.13;;;;;;;;;;4813885;29;20051;-71
2022/11/26 08:18:37;;;;;;;61.20;57.03;;;;;;;;;;4786655;29;20516;-70
2022/11/26 08:21:04;;;;;;;76.47;71.25;;;;;;;;;;4799483;29;20085;-70
2022/11/26 08:23:33;;;;;;;63.05;58.63;;;;;;;;;;4807742;29;20053;-70
2022/11/26 08:26:11;;;;;;;101.65;94.78;;;;;;;;;;4869169;24;20475;-71
2022/11/26 08:28:58;;;;;;;67.30;62.60;;;;;;;;;;4833240;29;20479;-72
2022/11/26 08:31:26;;;;;;;80.88;75.70;;;;;;;;;;4831183;29;20045;-72
2022/11/26 08:33:58;;;;;;;104.15;97.55;;;;;;;;;;4819271;29;20593;-72
2022/11/26 08:36:26;;;;;;;79.90;74.33;;;;;;;;;;4808806;29;20609;-71
2022/11/26 08:38:57;;;;;;;71.28;66.35;;;;;;;;;;4817945;29;20061;-72
2022/11/26 08:41:27;;;;;;;63.85;59.55;;;;;;;;;;4800951;29;20034;-71
2022/11/26 08:43:54;;;;;;;98.85;91.68;;;;;;;;;;4816647;29;20054;-72
2022/11/26 08:46:38;;;;;;;77.82;72.75;;;;;;;;;;4814474;29;20109;-72
2022/11/26 08:49:06;;;;;;;66.75;62.53;;;;;;;;;;4810034;29;20126;-71
2022/11/26 08:51:33;;;;;;;129.23;121.30;;;;;;;;;;4797378;29;20530;-71
2022/11/26 08:54:01;;;;;;;95.07;88.90;;;;;;;;;;4809752;29;20061;-71
2022/11/26 08:56:28;;;;;;;125.47;117.25;;;;;;;;;;4813076;29;20049;-71
2022/11/26 08:58:56;;;;;;;114.93;107.28;;;;;;;;;;4817690;29;20070;-72
2022/11/26 09:01:25;;;;;;;134.80;126.13;;;;;;;;;;4782230;29;20138;-71
2022/11/26 09:03:54;;;;;;;36.30;33.75;;;;;;;;;;4815823;29;20129;-70
2022/11/26 09:06:23;;;;;;;46.00;42.75;;;;;;;;;;4793137;29;20050;-70
2022/11/26 09:11:47;;;;;;;65.25;60.72;;;;;;;;;;4807702;29;20130;-71
2022/11/26 09:14:15;;;;;;;95.43;88.93;;;;;;;;;;4816358;29;20042;-71
2022/11/26 09:16:43;;;;;;;107.05;99.78;;;;;;;;;;4816487;29;20046;-71
2022/11/26 09:19:11;;;;;;;137.40;128.73;;;;;;;;;;4815191;29;20101;-71
2022/11/26 09:21:38;;;;;;;135.27;126.70;;;;;;;;;;4815301;29;20042;-70
2022/11/26 09:24:05;;;;;;;128.82;120.63;;;;;;;;;;4816085;29;20491;-72
2022/11/26 09:26:34;;;;;;;150.18;140.02;;;;;;;;;;4816569;29;20542;-70
2022/11/26 09:29:02;;;;;;;210.45;196.60;;;;;;;;;;4819633;29;20520;-71
2022/11/26 09:31:30;;;;;;;153.50;143.85;;;;;;;;;;4819183;29;20807;-70
2022/11/26 09:34:00;;;;;;;135.73;126.97;;;;;;;;;;4820124;29;20057;-70
2022/11/26 09:36:28;;;;;;;116.30;108.35;;;;;;;;;;4819585;29;20050;-70
2022/11/26 09:38:56;;;;;;;165.05;154.77;;;;;;;;;;4820186;29;20057;-70
2022/11/26 09:41:42;;;;;;;153.57;143.40;;;;;;;;;;4803060;29;20042;-71
2022/11/26 09:44:10;;;;;;;101.80;94.85;;;;;;;;;;4803617;29;20050;-71
2022/11/26 09:46:41;;;;;;;111.28;103.53;;;;;;;;;;4819477;29;20069;-71
2022/11/26 09:49:29;;;;;;;;;;;;;;;;;;4820171;29;20047;-71
2022/11/26 09:51:58;;;;;;;31.38;26.40;;;;;;;;;;4819648;29;20418;-71
2022/11/26 09:54:27;;;;;;;66.95;62.25;;;;;;;;;;4818885;29;20470;-71
2022/11/26 09:56:59;;;;;;;97.15;90.78;;;;;;;;;;4813130;29;20138;-71
2022/11/26 09:59:28;;;;;;;31.98;29.33;;;;;;;;;;4819976;29;20134;-71
2022/11/26 10:01:57;;;;;;;132.15;123.35;;;;;;;;;;4819551;29;20042;-73
2022/11/26 10:04:27;;;;;;;116.97;108.43;;;;;;;;;;4800395;29;20054;-70
2022/11/26 10:07:00;;;;;;;101.35;94.22;;;;;;;;;;4836588;29;20482;-70
2022/11/26 10:09:27;;;;;;;88.72;82.90;;;;;;;;;;4839132;29;20058;-70
2022/11/26 10:12:03;;;;;;;152.20;142.38;;;;;;;;;;4818754;29;20046;-70
2022/11/26 10:14:51;;;;;;;150.07;140.57;;;;;;;;;;4818919;29;20556;-70
2022/11/26 10:17:18;;;;;;;132.55;124.07;;;;;;;;;;4820287;29;20061;-70
2022/11/26 10:20:04;;;;;;;152.48;142.68;;;;;;;;;;4820204;29;20457;-71
2022/11/26 10:22:34;;;;;;;140.55;131.50;;;;;;;;;;4820569;29;20057;-70
2022/11/26 10:25:03;;;;;;;167.82;156.20;;;;;;;;;;4804368;29;20054;-70
2022/11/26 10:27:33;;;;;;;54.30;50.33;;;;;;;;;;4803472;29;20050;-71
2022/11/26 10:30:03;;;;;;;144.35;135.18;;;;;;;;;;4819732;29;20547;-71
2022/11/26 10:32:34;;;;;;;140.32;131.27;;;;;;;;;;4819979;29;20595;-70
2022/11/26 10:35:01;;;;;;;179.57;168.30;;;;;;;;;;4825970;29;20049;-71
2022/11/26 10:37:29;;;;;;;113.00;105.53;;;;;;;;;;4792190;29;20134;-70
2022/11/26 10:40:06;;;;;;;158.45;148.25;;;;;;;;;;4820849;29;20774;-71
2022/11/26 10:42:41;;;;;;;128.40;120.20;;;;;;;;;;4820252;29;20582;-69
2022/11/26 10:45:21;;;;;;;59.40;55.40;;;;;;;;;;4820468;29;20050;-69
2022/11/26 10:47:49;;;;;;;57.20;52.85;;;;;;;;;;4820259;29;20051;-71
2022/11/26 10:50:19;;;;;;;107.68;100.68;;;;;;;;;;4820257;29;20146;-69
2022/11/26 10:53:06;;;;;;;94.43;88.03;;;;;;;;;;4804261;29;20061;-70
2022/11/26 10:55:37;;;;;;;121.20;113.47;;;;;;;;;;4819653;29;20050;-70
2022/11/26 10:58:07;;;;;;;204.87;192.17;;;;;;;;;;4819713;29;20046;-70
2022/11/26 11:00:45;;;;;;;134.00;125.57;;;;;;;;;;4820333;29;20066;-71
2022/11/26 11:03:34;;;;;;;143.45;134.43;;;;;;;;;;4817740;29;20129;-70
2022/11/26 11:06:21;;;;;;;123.57;115.82;;;;;;;;;;4819912;29;20576;-70
2022/11/26 11:08:50;;;;;;;165.98;155.48;;;;;;;;;;4816873;29;20465;-70
2022/11/26 11:11:20;;;;;;;185.70;174.52;;;;;;;;;;4814182;29;20055;-70
2022/11/26 11:13:47;;;;;;;158.60;148.73;;;;;;;;;;4819039;29;20058;-70
2022/11/26 11:16:35;;;;;;;188.93;177.50;;;;;;;;;;4773052;29;20501;-70
2022/11/26 11:19:05;;;;;;;111.88;104.22;;;;;;;;;;4809724;29;20089;-70
2022/11/26 11:21:34;;;;;;;169.40;158.48;;;;;;;;;;4817391;29;20054;-70
2022/11/26 11:24:15;;;;;;;118.57;110.93;;;;;;;;;;4801647;29;20050;-70
2022/11/26 11:26:46;;;;;;;187.35;175.00;;;;;;;;;;4815278;29;20050;-69
2022/11/26 11:29:23;;;;;;;158.57;147.98;;;;;;;;;;4814534;29;20046;-69
2022/11/26 11:31:50;;;;;;;170.05;159.20;;;;;;;;;;4799354;29;20548;-69
2022/11/26 11:34:20;;;;;;;181.10;170.18;;;;;;;;;;4810466;29;20134;-69
2022/11/26 11:37:04;;;;;;;201.00;188.52;;;;;;;;;;4809830;29;22045;-69
2022/11/26 11:39:33;;;;;;;152.30;142.75;;;;;;;;;;4807514;29;20609;-70
2022/11/26 11:42:02;;;;;;;157.77;147.88;;;;;;;;;;4806557;29;20054;-70
2022/11/26 11:44:38;;;;;;;208.23;196.15;;;;;;;;;;4811464;29;20049;-69
2022/11/26 11:47:24;;;;;;;153.68;143.98;;;;;;;;;;4814919;29;20069;-69
2022/11/26 11:50:10;;;;;;;112.28;104.75;;;;;;;;;;4812482;29;20082;-69
2022/11/26 11:52:37;;;;;;;53.00;49.13;;;;;;;;;;4796160;29;20453;-69
2022/11/26 11:55:14;;;;;;;186.52;174.82;;;;;;;;;;4812501;29;20079;-69
2022/11/26 11:57:44;;;;;;;158.18;148.07;;;;;;;;;;4814957;29;20527;-69
2022/11/26 12:00:14;;;;;;;180.70;169.93;;;;;;;;;;4817408;29;20095;-69
2022/11/26 12:02:50;;;;;;;187.10;176.00;;;;;;;;;;4815182;29;20042;-70
2022/11/26 12:05:20;;;;;;;172.02;161.45;;;;;;;;;;4791974;29;20439;-70
2022/11/26 12:08:11;;;;;;;192.27;180.77;;;;;;;;;;4796381;29;20571;-70
2022/11/26 12:10:41;;;;;;;195.55;183.45;;;;;;;;;;4816172;29;20107;-69
2022/11/26 12:13:12;;;;;;;187.82;176.35;;;;;;;;;;4802918;29;20047;-69
2022/11/26 12:15:41;;;;;;;184.63;173.23;;;;;;;;;;4812083;29;20051;-69
2022/11/26 12:18:21;;;;;;;164.50;154.60;;;;;;;;;;4812659;29;20042;-68
2022/11/26 12:20:51;;;;;;;207.25;194.75;;;;;;;;;;4812844;29;20050;-70
2022/11/26 12:23:25;;;;;;;208.30;195.98;;;;;;;;;;4816098;29;20043;-69
2022/11/26 12:25:56;;;;;;;179.45;168.30;;;;;;;;;;4814602;29;20046;-70
2022/11/26 12:28:35;;;;;;;105.87;99.57;;;;;;;;;;4815212;29;20042;-70
2022/11/26 12:31:05;;;;;;;114.60;107.53;;;;;;;;;;4815992;29;20138;-69
2022/11/26 12:33:35;;;;;;;187.63;176.30;;;;;;;;;;4816658;29;20046;-69
2022/11/26 12:36:11;;;;;;;138.10;129.55;;;;;;;;;;4817048;29;20046;-69
2022/11/26 12:38:44;;;;;;;193.35;181.82;;;;;;;;;;4817866;29;20567;-70
2022/11/26 12:41:15;;;;;;;194.75;183.25;;;;;;;;;;4810140;29;20042;-70
2022/11/26 12:44:01;;;;;;;156.05;146.25;;;;;;;;;;4815523;29;20046;-69
2022/11/26 12:46:34;;;;;;;182.40;171.15;;;;;;;;;;4811740;29;20053;-69
2022/11/26 12:49:22;;;;;;;201.38;189.60;;;;;;;;;;4815349;29;20059;-70
2022/11/26 12:52:01;;;;;;;150.77;141.73;;;;;;;;;;4778650;29;20075;-70
2022/11/26 12:54:31;;;;;;;188.65;177.63;;;;;;;;;;4815611;29;20091;-69
2022/11/26 12:57:02;;;;;;;148.27;139.10;;;;;;;;;;4814630;29;20055;-70
2022/11/26 12:59:32;;;;;;;194.55;182.95;;;;;;;;;;4815564;29;20070;-70
2022/11/26 13:02:00;;;;;;;187.23;175.43;;;;;;;;;;4798438;29;20042;-70
2022/11/26 13:04:28;;;;;;;196.15;184.75;;;;;;;;;;4814946;29;20044;-70
2022/11/26 13:07:12;;;;;;;133.38;125.07;;;;;;;;;;4799638;29;20515;-70
2022/11/26 13:10:02;;;;;;;190.38;179.00;;;;;;;;;;4813622;29;20481;-70
2022/11/26 13:12:48;;;;;;;150.25;140.88;;;;;;;;;;4784949;29;20073;-70
2022/11/26 13:15:22;;;;;;;166.23;156.15;;;;;;;;;;4814133;29;20043;-70
2022/11/26 13:17:50;;;;;;;172.02;161.73;;;;;;;;;;4810314;29;20403;-69
2022/11/26 13:20:33;;;;;;;116.22;109.10;;;;;;;;;;4806030;29;20050;-69
2022/11/26 13:23:07;;;;;;;176.43;166.07;;;;;;;;;;4810501;29;20047;-69
2022/11/26 13:25:44;;;;;;;152.75;143.98;;;;;;;;;;4817032;29;20446;-70
2022/11/26 13:28:29;;;;;;;161.00;151.02;;;;;;;;;;4800924;29;20061;-70
2022/11/26 13:31:15;;;;;;;119.72;112.47;;;;;;;;;;4817568;29;20874;-70
2022/11/26 13:33:49;;;;;;;151.07;141.85;;;;;;;;;;4817046;29;20122;-70
2022/11/26 13:36:40;;;;;;;139.45;130.88;;;;;;;;;;4799210;29;20047;-69
2022/11/26 13:39:26;;;;;;;147.70;138.68;;;;;;;;;;4783503;29;20063;-69
2022/11/26 13:42:12;;;;;;;160.55;151.25;;;;;;;;;;4806701;29;20038;-69
2022/11/26 13:44:45;;;;;;;99.78;93.35;;;;;;;;;;4792207;29;20058;-70
2022/11/26 13:47:15;;;;;;;165.05;155.57;;;;;;;;;;4814019;29;20047;-69
2022/11/26 13:49:56;;;;;;;123.65;115.85;;;;;;;;;;4800877;29;20099;-69
2022/11/26 13:52:26;;;;;;;142.20;133.77;;;;;;;;;;4816312;29;20059;-70
2022/11/26 13:54:57;;;;;;;151.60;142.55;;;;;;;;;;4802679;29;20053;-69
2022/11/26 13:57:30;;;;;;;153.25;144.10;;;;;;;;;;4795847;29;20083;-70
2022/11/26 13:59:58;;;;;;;167.18;157.45;;;;;;;;;;4814533;29;20112;-69
2022/11/26 14:02:35;;;;;;;178.30;168.00;;;;;;;;;;4812127;29;20034;-69
2022/11/26 14:05:07;;;;;;;140.85;132.20;;;;;;;;;;4817478;29;20527;-70
2022/11/26 14:07:34;;;;;;;127.82;120.53;;;;;;;;;;4797363;29;20431;-70
2022/11/26 14:10:03;;;;;;;102.35;96.28;;;;;;;;;;4816617;29;20047;-70
2022/11/26 14:12:51;;;;;;;160.15;150.68;;;;;;;;;;4813150;29;20046;-70
2022/11/26 14:15:47;;;;;;;133.02;125.25;;;;;;;;;;4808681;29;20050;-70
2022/11/26 14:18:16;;;;;;;117.63;110.68;;;;;;;;;;4780051;29;20054;-70
2022/11/26 14:20:59;;;;;;;173.65;163.20;;;;;;;;;;4819693;29;20046;-70
2022/11/26 14:23:46;;;;;;;111.03;104.53;;;;;;;;;;4817353;29;20057;-70
2022/11/26 14:26:48;;;;;;;147.95;139.15;;;;;;;;;;4856332;24;20057;-85
2022/11/26 14:29:36;;;;;;;86.47;81.25;;;;;;;;;;4805486;29;20050;-84
2022/11/26 14:32:13;;;;;;;144.02;135.65;;;;;;;;;;4811882;29;20077;-84
2022/11/26 14:34:52;;;;;;;129.88;122.28;;;;;;;;;;4808265;29;20047;-84